Time;durP1;ratioP1;P1;durP2;ratioP2;P2;SDS_P1;SDS_P2;PMS_P1;PMS_P2;Temp;Humidity;BMP_temperature;BMP_pressure;BME280_temperature;BME280_humidity;BME280_pressure;Samples;Min_cycle;Max_cycle;Signal;HPM_P1;HPM_P2
2022/07/06 00:00:43;;;;;;;14.20;9.00;;;14.40;99.00;;;;;;5091993;28;20062;-56
2022/07/06 00:03:09;;;;;;;11.75;7.10;;;14.50;99.00;;;;;;5092440;28;20024;-55
2022/07/06 00:05:34;;;;;;;9.20;5.25;;;14.50;98.80;;;;;;5091866;28;20115;-56
2022/07/06 00:08:00;;;;;;;12.48;8.45;;;14.40;98.40;;;;;;5092178;28;20032;-58
2022/07/06 00:10:25;;;;;;;16.20;9.55;;;14.30;98.60;;;;;;5091840;28;20027;-43
2022/07/06 00:12:51;;;;;;;14.10;9.48;;;14.20;99.00;;;;;;5092135;28;20024;-54
2022/07/06 00:15:17;;;;;;;15.73;9.82;;;14.10;99.30;;;;;;5092186;28;20055;-56
2022/07/06 00:17:42;;;;;;;17.20;10.30;;;14.00;99.50;;;;;;5091640;28;20031;-56
2022/07/06 00:20:09;;;;;;;16.08;9.07;;;14.00;99.70;;;;;;5092141;28;20111;-56
2022/07/06 00:22:34;;;;;;;16.08;9.73;;;14.00;99.80;;;;;;5091006;28;20047;-54
2022/07/06 00:25:00;;;;;;;15.30;9.43;;;13.90;99.80;;;;;;5085270;28;20025;-58
2022/07/06 00:27:25;;;;;;;12.05;8.30;;;14.00;99.80;;;;;;5087644;28;20035;-52
2022/07/06 00:29:51;;;;;;;12.85;8.63;;;14.00;99.80;;;;;;5091730;28;20024;-54
2022/07/06 00:32:17;;;;;;;11.57;7.90;;;14.00;99.80;;;;;;5091895;28;20022;-56
2022/07/06 00:34:42;;;;;;;12.60;7.75;;;14.10;99.80;;;;;;5091534;28;20114;-59
2022/07/06 00:37:08;;;;;;;12.43;7.07;;;14.10;99.70;;;;;;5091587;28;20035;-51
2022/07/06 00:39:34;;;;;;;9.68;7.50;;;14.10;99.50;;;;;;5091567;28;20031;-54
2022/07/06 00:42:00;;;;;;;13.30;8.27;;;14.10;99.40;;;;;;5091603;28;20040;-57
2022/07/06 00:44:26;;;;;;;12.57;8.23;;;14.10;99.40;;;;;;5091500;28;20028;-57
2022/07/06 00:46:52;;;;;;;12.23;7.57;;;14.10;99.50;;;;;;5089797;28;20028;-59
2022/07/06 00:52:02;;;;;;;11.77;7.82;;;14.00;99.40;;;;;;5091339;28;20034;-57
2022/07/06 00:54:31;;;;;;;11.15;7.80;;;13.90;99.50;;;;;;5091400;28;20024;-56
2022/07/06 00:56:57;;;;;;;14.35;8.35;;;13.80;99.60;;;;;;5091062;28;20483;-58
2022/07/06 00:59:24;;;;;;;11.77;7.30;;;13.70;99.80;;;;;;5091276;28;20479;-54
2022/07/06 01:01:50;;;;;;;10.93;7.75;;;13.60;99.90;;;;;;5090890;28;20051;-56
2022/07/06 01:04:16;;;;;;;11.63;7.82;;;13.60;99.90;;;;;;5091193;28;20055;-61
2022/07/06 01:06:45;;;;;;;12.63;7.60;;;13.60;99.90;;;;;;5091144;28;20067;-59
2022/07/06 01:09:11;;;;;;;11.02;7.95;;;13.60;99.90;;;;;;5091101;28;20016;-59
2022/07/06 01:11:37;;;;;;;10.23;7.75;;;13.70;99.90;;;;;;5091429;28;20024;-60
2022/07/06 01:14:03;;;;;;;11.25;7.93;;;13.60;99.90;;;;;;5091062;28;20386;-49
2022/07/06 01:16:29;;;;;;;12.93;8.32;;;13.70;99.90;;;;;;5091029;28;20032;-56
2022/07/06 01:18:55;;;;;;;11.65;7.28;;;13.70;99.90;;;;;;5090842;28;20016;-52
2022/07/06 01:21:21;;;;;;;11.68;7.80;;;13.70;99.90;;;;;;5091136;28;20036;-61
2022/07/06 01:23:47;;;;;;;11.13;7.57;;;13.70;99.90;;;;;;5091271;28;20025;-49
2022/07/06 01:26:15;;;;;;;10.38;7.00;;;13.70;99.90;;;;;;5079396;28;20028;-57
2022/07/06 01:28:42;;;;;;;11.32;6.72;;;13.70;99.90;;;;;;5090964;28;20020;-57
2022/07/06 01:31:34;;;;;;;12.23;6.55;;;13.70;99.90;;;;;;5091087;28;20028;-53
2022/07/06 01:34:00;;;;;;;9.57;6.07;;;13.70;99.70;;;;;;5081371;28;20066;-56
2022/07/06 01:36:26;;;;;;;9.10;5.78;;;13.70;99.60;;;;;;5094890;28;20055;-55
2022/07/06 01:38:59;;;;;;;9.45;5.80;;;13.70;99.70;;;;;;5092554;28;20024;-51
2022/07/06 01:41:25;;;;;;;8.15;5.75;;;13.70;99.60;;;;;;5094908;28;20475;-57
2022/07/06 01:43:51;;;;;;;11.05;5.88;;;13.70;99.70;;;;;;5094642;28;20077;-54
2022/07/06 01:46:16;;;;;;;8.07;5.75;;;13.70;99.60;;;;;;5095763;28;20499;-59
2022/07/06 01:48:42;;;;;;;8.38;5.75;;;13.70;99.60;;;;;;5080613;28;20027;-55
2022/07/06 01:51:08;;;;;;;9.23;5.72;;;13.60;99.30;;;;;;5095023;28;20028;-62
2022/07/06 01:53:34;;;;;;;10.68;6.07;;;13.70;99.30;;;;;;5094755;28;20179;-58
2022/07/06 01:56:00;;;;;;;8.18;5.53;;;13.60;99.40;;;;;;5088256;28;20048;-53
2022/07/06 01:58:26;;;;;;;8.30;5.78;;;13.50;99.30;;;;;;5094576;28;20020;-54
2022/07/06 02:00:51;;;;;;;7.82;5.93;;;13.50;99.30;;;;;;5094236;28;20048;-55
2022/07/06 02:03:17;;;;;;;9.75;6.40;;;13.50;99.30;;;;;;5094627;28;20492;-51
2022/07/06 02:05:42;;;;;;;9.82;6.25;;;13.40;99.30;;;;;;5094395;28;20520;-55
2022/07/06 02:08:08;;;;;;;8.60;6.18;;;13.40;99.30;;;;;;5094253;28;20028;-58
2022/07/06 02:10:34;;;;;;;8.52;5.97;;;13.30;99.40;;;;;;5094263;28;20024;-57
2022/07/06 02:12:59;;;;;;;11.18;7.32;;;13.20;99.60;;;;;;5087052;28;20036;-47
2022/07/06 02:15:25;;;;;;;10.38;6.72;;;13.00;99.80;;;;;;5087282;28;20028;-52
2022/07/06 02:17:51;;;;;;;12.65;7.18;;;12.90;99.90;;;;;;5094259;28;20083;-59
2022/07/06 02:20:16;;;;;;;11.23;6.70;;;12.80;99.90;;;;;;5094385;28;20459;-58
2022/07/06 02:22:42;;;;;;;10.88;7.18;;;12.70;99.90;;;;;;5094037;28;20499;-53
2022/07/06 02:25:08;;;;;;;9.85;6.30;;;12.70;99.90;;;;;;5094207;28;20023;-59
2022/07/06 02:27:33;;;;;;;9.75;6.47;;;12.70;99.90;;;;;;5093740;28;20028;-53
2022/07/06 02:29:59;;;;;;;8.30;5.50;;;12.70;99.90;;;;;;5094067;28;20032;-51
2022/07/06 02:32:25;;;;;;;6.80;4.38;;;12.70;99.90;;;;;;5092975;28;20028;-56
2022/07/06 02:34:52;;;;;;;6.78;4.30;;;12.70;99.90;;;;;;5093515;28;20016;-50
2022/07/06 02:37:18;;;;;;;7.95;4.35;;;12.80;99.90;;;;;;5093907;28;20028;-59
2022/07/06 02:39:43;;;;;;;6.60;4.22;;;12.90;99.90;;;;;;5093626;28;20065;-56
2022/07/06 02:42:09;;;;;;;6.90;4.20;;;12.90;99.90;;;;;;5093717;28;20043;-54
2022/07/06 02:44:35;;;;;;;6.82;3.97;;;12.90;99.90;;;;;;5092829;28;20437;-49
2022/07/06 02:47:00;;;;;;;7.15;4.35;;;12.90;99.90;;;;;;5087520;28;20434;-56
2022/07/06 02:49:26;;;;;;;10.20;4.70;;;13.00;99.90;;;;;;5085952;28;20024;-61
2022/07/06 02:51:52;;;;;;;6.65;4.25;;;12.90;99.90;;;;;;5093496;28;20028;-47
2022/07/06 02:54:17;;;;;;;5.65;3.85;;;13.00;99.90;;;;;;5092417;28;20456;-57
2022/07/06 02:56:44;;;;;;;6.78;4.10;;;13.00;99.90;;;;;;5093469;28;20115;-58
2022/07/06 02:59:10;;;;;;;5.70;3.85;;;13.00;99.90;;;;;;5093336;28;20076;-51
2022/07/06 03:01:35;;;;;;;7.53;4.30;;;13.00;99.90;;;;;;5092775;28;20131;-55
2022/07/06 03:04:01;;;;;;;6.65;4.28;;;13.00;99.90;;;;;;5093184;28;20033;-55
2022/07/06 03:06:27;;;;;;;7.60;3.95;;;13.00;99.90;;;;;;5093492;28;20509;-52
2022/07/06 03:08:52;;;;;;;5.25;3.95;;;13.00;99.90;;;;;;5093318;28;20487;-57
2022/07/06 03:11:18;;;;;;;7.45;4.32;;;13.00;99.90;;;;;;5093364;28;20024;-59
2022/07/06 03:13:43;;;;;;;7.80;3.95;;;13.00;99.90;;;;;;5092475;28;20035;-49
2022/07/06 03:16:09;;;;;;;5.55;3.90;;;13.00;99.90;;;;;;5093124;28;20372;-57
2022/07/06 03:18:35;;;;;;;8.52;4.50;;;13.00;99.90;;;;;;5091906;28;20027;-52
2022/07/06 03:21:03;;;;;;;7.50;4.40;;;13.00;99.70;;;;;;5093144;28;20040;-53
2022/07/06 03:23:30;;;;;;;6.70;4.30;;;13.00;99.60;;;;;;5092897;28;20027;-61
2022/07/06 03:25:55;;;;;;;7.57;4.28;;;12.90;99.70;;;;;;5092774;28;20479;-56
2022/07/06 03:28:21;;;;;;;6.57;4.18;;;12.90;99.80;;;;;;5092893;28;20024;-57
2022/07/06 03:30:47;;;;;;;6.65;3.88;;;12.90;99.70;;;;;;5092717;28;20065;-53
2022/07/06 03:33:12;;;;;;;6.32;4.32;;;12.90;99.70;;;;;;5092692;28;20039;-48
2022/07/06 03:35:38;;;;;;;7.25;4.30;;;12.90;99.80;;;;;;5092616;28;20036;-53
2022/07/06 03:38:04;;;;;;;7.35;4.50;;;12.90;99.90;;;;;;5092859;28;20039;-55
2022/07/06 03:40:29;;;;;;;5.95;3.78;;;12.80;99.70;;;;;;5091562;28;20047;-54
2022/07/06 03:42:55;;;;;;;6.63;4.13;;;12.80;99.90;;;;;;5091213;28;20433;-49
2022/07/06 03:45:20;;;;;;;6.03;4.22;;;12.80;99.90;;;;;;5092776;28;20113;-58
2022/07/06 03:47:46;;;;;;;7.43;3.95;;;12.80;99.70;;;;;;5079968;28;20360;-56
2022/07/06 03:50:12;;;;;;;6.63;4.35;;;12.70;99.90;;;;;;5090793;28;20039;-59
2022/07/06 03:52:39;;;;;;;8.10;4.20;;;12.70;99.90;;;;;;5092237;28;20070;-45
2022/07/06 03:55:12;;;;;;;6.50;3.70;;;12.60;99.90;;;;;;5092137;28;20559;-57
2022/07/06 03:57:40;;;;;;;7.07;4.32;;;12.60;99.90;;;;;;5092409;28;20020;-58
2022/07/06 04:00:07;;;;;;;5.63;3.58;;;12.50;99.90;;;;;;5092235;28;20525;-53
2022/07/06 04:02:33;;;;;;;7.43;4.07;;;12.60;99.90;;;;;;5091933;28;20168;-55
2022/07/06 04:04:58;;;;;;;5.85;3.60;;;12.50;99.90;;;;;;5092454;28;20499;-55
2022/07/06 04:07:25;;;;;;;7.88;3.88;;;12.50;99.90;;;;;;5078034;28;20024;-56
2022/07/06 04:09:50;;;;;;;5.30;3.72;;;12.50;99.90;;;;;;5092156;28;20043;-57
2022/07/06 04:12:16;;;;;;;5.70;3.28;;;12.60;99.90;;;;;;5091971;28;20375;-54
2022/07/06 04:14:42;;;;;;;6.05;3.67;;;12.60;99.90;;;;;;5092195;28;20378;-52
2022/07/06 04:19:52;;;;;;;6.80;3.30;;;12.70;99.90;;;;;;5092204;28;20103;-53
2022/07/06 04:22:17;;;;;;;4.93;3.22;;;12.70;99.90;;;;;;5090379;28;20115;-38
2022/07/06 04:24:43;;;;;;;5.28;2.97;;;12.70;99.90;;;;;;5080284;28;20020;-45
2022/07/06 04:27:09;;;;;;;6.10;3.92;;;12.70;99.90;;;;;;5091732;28;20024;-59
2022/07/06 04:29:35;;;;;;;8.80;3.78;;;12.70;99.90;;;;;;5091822;28;20027;-49
2022/07/06 04:32:00;;;;;;;8.82;4.32;;;12.80;99.90;;;;;;5107434;28;20032;-54
2022/07/06 04:34:26;;;;;;;6.13;3.55;;;12.80;99.90;;;;;;5091428;28;20081;-49
2022/07/06 04:36:52;;;;;;;6.03;3.38;;;12.80;99.90;;;;;;5091593;28;20028;-60
2022/07/06 04:39:18;;;;;;;6.00;3.45;;;12.70;99.60;;;;;;5091526;28;20032;-56
2022/07/06 04:41:43;;;;;;;6.90;3.80;;;12.80;99.60;;;;;;5091513;28;20032;-55
2022/07/06 04:44:09;;;;;;;6.43;3.70;;;12.70;99.20;;;;;;5091216;28;20424;-58
2022/07/06 04:46:35;;;;;;;7.35;3.53;;;12.70;99.80;;;;;;5088856;28;20020;-49
2022/07/06 04:49:00;;;;;;;5.35;3.42;;;12.80;99.80;;;;;;5079947;28;20152;-53
2022/07/06 04:51:26;;;;;;;5.30;3.35;;;12.80;99.90;;;;;;5091307;28;20031;-50
2022/07/06 04:53:52;;;;;;;7.93;3.97;;;12.80;99.90;;;;;;5091132;28;20395;-59
2022/07/06 04:56:17;;;;;;;6.35;3.35;;;12.80;99.90;;;;;;5091378;28;20136;-59
2022/07/06 04:58:43;;;;;;;5.00;3.17;;;12.80;99.90;;;;;;5091345;28;20024;-55
2022/07/06 05:01:08;;;;;;;5.97;2.95;;;13.00;99.90;;;;;;5091103;28;20123;-57
2022/07/06 05:03:40;;;;;;;3.53;2.72;;;13.30;98.80;;;;;;5090770;28;20040;-55
2022/07/06 05:06:06;;;;;;;5.10;2.50;;;13.80;98.60;;;;;;5090477;28;20152;-54
2022/07/06 05:08:32;;;;;;;6.43;2.65;;;14.00;97.50;;;;;;5090106;28;20546;-48
2022/07/06 05:10:58;;;;;;;4.80;2.30;;;14.20;97.10;;;;;;5090121;28;20115;-56
2022/07/06 05:13:24;;;;;;;4.90;2.53;;;14.30;96.50;;;;;;5090446;28;20439;-49
2022/07/06 05:15:49;;;;;;;4.95;2.10;;;14.40;96.70;;;;;;5090050;28;20020;-60
2022/07/06 05:18:15;;;;;;;5.47;2.50;;;14.50;96.80;;;;;;5090615;28;20036;-57
2022/07/06 05:20:41;;;;;;;4.25;2.10;;;14.60;95.70;;;;;;5090642;28;20432;-59
2022/07/06 05:23:06;;;;;;;5.60;2.47;;;14.70;96.10;;;;;;5090505;28;20521;-53
2022/07/06 05:25:32;;;;;;;4.93;2.13;;;14.70;95.30;;;;;;5090901;28;20017;-50
2022/07/06 05:27:59;;;;;;;3.90;1.90;;;14.60;95.60;;;;;;5090812;28;20462;-39
2022/07/06 05:30:25;;;;;;;3.78;1.92;;;14.60;95.90;;;;;;5090849;28;20063;-38
2022/07/06 05:32:51;;;;;;;3.88;1.83;;;14.60;96.60;;;;;;5090525;28;20020;-40
2022/07/06 05:35:16;;;;;;;5.97;2.10;;;14.70;96.30;;;;;;5090835;28;20039;-38
2022/07/06 05:37:42;;;;;;;4.45;1.70;;;14.80;95.50;;;;;;5089252;28;20474;-42
2022/07/06 05:40:09;;;;;;;5.32;1.90;;;14.90;95.70;;;;;;5090705;28;20057;-38
2022/07/06 05:42:35;;;;;;;2.90;1.80;;;15.10;95.70;;;;;;5090247;28;20036;-39
2022/07/06 05:45:00;;;;;;;6.82;1.95;;;15.20;96.00;;;;;;5090649;28;20024;-40
2022/07/06 05:50:13;;;;;;;3.55;1.65;;;15.90;93.30;;;;;;5088683;28;20490;-38
2022/07/06 05:52:44;;;;;;;4.22;1.95;;;16.20;93.00;;;;;;5090514;28;20024;-40
2022/07/06 05:55:11;;;;;;;4.53;1.65;;;16.60;92.60;;;;;;5087140;28;20089;-54
2022/07/06 05:57:38;;;;;;;4.43;1.40;;;16.90;91.10;;;;;;5088008;28;20028;-49
2022/07/06 06:00:05;;;;;;;3.58;1.50;;;17.40;91.10;;;;;;5088974;28;20559;-59
2022/07/06 06:02:41;;;;;;;3.78;1.58;;;17.80;90.80;;;;;;5090369;28;20152;-59
2022/07/06 06:05:09;;;;;;;4.75;1.48;;;18.10;90.10;;;;;;5089687;28;20421;-54
2022/07/06 06:07:37;;;;;;;5.15;1.70;;;18.30;86.50;;;;;;5090284;28;20020;-56
2022/07/06 06:10:08;;;;;;;5.68;1.60;;;18.60;86.90;;;;;;5090386;28;20363;-40
2022/07/06 06:12:34;;;;;;;5.60;1.55;;;18.80;85.10;;;;;;5089402;28;20027;-52
2022/07/06 06:15:00;;;;;;;3.53;1.23;;;19.00;86.80;;;;;;5088411;28;20028;-53
2022/07/06 06:17:26;;;;;;;5.75;1.40;;;18.90;85.40;;;;;;5088354;28;20490;-48
2022/07/06 06:19:52;;;;;;;4.88;1.63;;;18.60;84.70;;;;;;5089214;28;20020;-57
2022/07/06 06:22:18;;;;;;;3.83;1.40;;;18.30;85.70;;;;;;5092337;28;20428;-52
2022/07/06 06:24:43;;;;;;;4.18;1.50;;;18.00;87.30;;;;;;5092576;28;20379;-56
2022/07/06 06:27:09;;;;;;;6.90;1.92;;;17.90;88.80;;;;;;5085074;28;20024;-53
2022/07/06 06:29:35;;;;;;;6.10;1.40;;;17.80;90.10;;;;;;5091699;28;20137;-58
2022/07/06 06:32:00;;;;;;;5.50;1.50;;;17.80;89.30;;;;;;5093768;28;20078;-49
2022/07/06 06:34:26;;;;;;;3.33;1.55;;;17.60;89.70;;;;;;5093728;28;20020;-51
2022/07/06 06:36:52;;;;;;;4.38;1.67;;;17.50;91.70;;;;;;5093742;28;20088;-52
2022/07/06 06:39:17;;;;;;;4.28;1.40;;;17.40;91.30;;;;;;5093357;28;20021;-56
2022/07/06 06:41:43;;;;;;;6.45;1.70;;;17.30;90.70;;;;;;5093809;28;20032;-56
2022/07/06 06:44:08;;;;;;;4.80;1.63;;;17.20;92.10;;;;;;5093439;28;20094;-47
2022/07/06 06:46:34;;;;;;;5.70;1.80;;;17.20;92.10;;;;;;5089019;28;20016;-61
2022/07/06 06:49:00;;;;;;;4.10;1.45;;;17.50;93.00;;;;;;5079794;28;20024;-54
2022/07/06 06:51:25;;;;;;;5.28;1.58;;;18.20;90.70;;;;;;5085856;28;20020;-54
2022/07/06 06:53:51;;;;;;;4.70;1.50;;;18.70;90.40;;;;;;5085594;28;20024;-58
2022/07/06 06:56:16;;;;;;;3.85;1.52;;;19.20;88.40;;;;;;5089316;28;20031;-55
2022/07/06 06:58:43;;;;;;;5.00;1.35;;;19.80;86.10;;;;;;5093259;28;20020;-48
2022/07/06 07:01:08;;;;;;;3.30;1.42;;;20.50;86.00;;;;;;5092320;28;20084;-57
2022/07/06 07:03:35;;;;;;;3.63;1.30;;;20.90;85.00;;;;;;5092854;28;20056;-56
2022/07/06 07:06:00;;;;;;;6.65;1.45;;;20.90;79.70;;;;;;5091169;28;20069;-53
2022/07/06 07:08:26;;;;;;;3.88;1.38;;;20.60;78.20;;;;;;5092807;28;20036;-55
2022/07/06 07:10:52;;;;;;;3.33;1.48;;;20.40;80.30;;;;;;5089197;28;20024;-52
2022/07/06 07:13:17;;;;;;;6.85;1.70;;;20.10;82.40;;;;;;5090215;28;20099;-54
2022/07/06 07:15:43;;;;;;;5.43;1.75;;;19.70;85.50;;;;;;5090269;28;20024;-41
2022/07/06 07:18:09;;;;;;;4.47;1.60;;;19.60;85.20;;;;;;5089734;28;20028;-58
2022/07/06 07:20:34;;;;;;;3.30;1.45;;;19.50;88.10;;;;;;5082616;28;20032;-48
2022/07/06 07:23:01;;;;;;;4.00;1.67;;;19.30;87.40;;;;;;5077959;28;20028;-52
2022/07/06 07:25:27;;;;;;;4.57;1.50;;;19.30;88.30;;;;;;5088203;28;20028;-49
2022/07/06 07:27:53;;;;;;;6.40;1.60;;;19.60;86.40;;;;;;5092946;28;20064;-56
2022/07/06 07:30:19;;;;;;;4.20;1.67;;;19.90;84.50;;;;;;5092926;28;20040;-47
2022/07/06 07:32:45;;;;;;;4.15;1.90;;;20.20;83.80;;;;;;5092344;28;20062;-53
2022/07/06 07:35:11;;;;;;;5.07;1.73;;;20.50;86.00;;;;;;5092590;28;20023;-40
2022/07/06 07:37:36;;;;;;;3.70;1.63;;;20.70;86.70;;;;;;5092617;28;20743;-52
2022/07/06 07:40:04;;;;;;;4.60;1.48;;;21.00;83.90;;;;;;5092521;28;20028;-54
2022/07/06 07:42:29;;;;;;;4.63;1.60;;;21.50;79.60;;;;;;5091735;28;20047;-55
2022/07/06 07:44:55;;;;;;;3.55;1.42;;;22.20;78.90;;;;;;5092103;28;20016;-49
2022/07/06 07:47:21;;;;;;;4.95;1.58;;;22.90;76.90;;;;;;5083277;28;20041;-54
2022/07/06 07:49:46;;;;;;;3.75;1.23;;;23.80;75.90;;;;;;5087054;28;20043;-58
2022/07/06 07:52:12;;;;;;;4.72;1.38;;;24.40;71.30;;;;;;5092348;28;20031;-57
2022/07/06 07:54:38;;;;;;;4.68;1.20;;;25.30;67.20;;;;;;5092768;28;20079;-45
2022/07/06 07:57:04;;;;;;;2.65;1.40;;;26.20;63.00;;;;;;5092409;28;20390;-49
2022/07/06 07:59:29;;;;;;;3.13;1.23;;;26.70;61.60;;;;;;5092629;28;20020;-42
2022/07/06 08:01:55;;;;;;;4.13;1.00;;;26.90;62.10;;;;;;5092140;28;20463;-50
2022/07/06 08:04:21;;;;;;;4.18;1.63;;;26.70;59.30;;;;;;5092232;28;20107;-43
2022/07/06 08:06:47;;;;;;;4.97;1.30;;;26.70;60.00;;;;;;5092183;28;20066;-45
2022/07/06 08:09:12;;;;;;;4.38;1.20;;;26.30;58.70;;;;;;5092140;28;20032;-52
2022/07/06 08:11:38;;;;;;;3.90;1.48;;;25.60;60.70;;;;;;5092158;28;20020;-54
2022/07/06 08:14:04;;;;;;;3.47;1.30;;;25.20;64.00;;;;;;5092012;28;20023;-52
2022/07/06 08:16:30;;;;;;;5.32;1.50;;;24.80;66.20;;;;;;5092219;28;20073;-56
2022/07/06 08:18:56;;;;;;;3.63;1.73;;;24.80;63.70;;;;;;5091750;28;20070;-50
2022/07/06 08:21:22;;;;;;;5.35;2.15;;;24.70;65.80;;;;;;5092067;28;20032;-60
2022/07/06 08:23:48;;;;;;;5.25;2.00;;;24.50;65.90;;;;;;5091821;28;20391;-57
2022/07/06 08:26:13;;;;;;;4.80;2.15;;;24.20;67.80;;;;;;5091874;28;20028;-39
2022/07/06 08:28:39;;;;;;;5.38;2.58;;;24.30;70.70;;;;;;5091750;28;20382;-41
2022/07/06 08:31:05;;;;;;;6.82;3.33;;;24.50;66.60;;;;;;5091067;28;20032;-39
2022/07/06 08:33:31;;;;;;;8.20;4.07;;;24.60;67.20;;;;;;5091785;28;20044;-49
2022/07/06 08:35:56;;;;;;;8.77;4.60;;;24.90;62.90;;;;;;5091278;28;20024;-41
2022/07/06 08:38:22;;;;;;;7.20;4.78;;;25.10;66.50;;;;;;5103971;28;20422;-56
2022/07/06 08:40:51;;;;;;;7.53;4.60;;;24.80;64.40;;;;;;5089448;28;20027;-58
2022/07/06 08:43:17;;;;;;;9.00;4.75;;;24.40;67.00;;;;;;5089797;28;20119;-60
2022/07/06 08:45:44;;;;;;;8.88;5.50;;;23.90;65.60;;;;;;5090277;28;20031;-55
2022/07/06 08:48:11;;;;;;;8.50;5.68;;;23.50;69.40;;;;;;5075530;28;20032;-55
2022/07/06 08:50:37;;;;;;;7.72;5.55;;;23.20;69.60;;;;;;5091228;28;20047;-45
2022/07/06 08:53:04;;;;;;;10.13;5.68;;;22.90;71.70;;;;;;5091350;28;20503;-50
2022/07/06 08:55:30;;;;;;;10.85;6.05;;;23.10;71.20;;;;;;5091357;28;20095;-55
2022/07/06 08:57:56;;;;;;;10.68;6.47;;;23.20;73.40;;;;;;5091429;28;20118;-56
2022/07/06 09:00:24;;;;;;;11.65;7.07;;;23.50;73.90;;;;;;5090505;28;20036;-50
2022/07/06 09:02:51;;;;;;;11.27;8.07;;;23.90;72.60;;;;;;5077004;28;20479;-44
2022/07/06 09:05:21;;;;;;;13.95;7.78;;;24.20;71.10;;;;;;5086965;28;20696;-57
2022/07/06 09:07:49;;;;;;;13.15;7.70;;;24.30;69.40;;;;;;5105742;28;20027;-53
2022/07/06 09:10:18;;;;;;;11.45;7.65;;;24.20;71.10;;;;;;5090853;28;20031;-56
2022/07/06 09:12:43;;;;;;;13.25;8.05;;;24.20;68.70;;;;;;5089493;28;20429;-49
2022/07/06 09:15:09;;;;;;;12.45;8.57;;;24.40;72.30;;;;;;5091275;28;20111;-52
2022/07/06 09:17:39;;;;;;;12.35;8.68;;;25.00;73.40;;;;;;5090995;28;20505;-53
2022/07/06 09:20:13;;;;;;;13.27;9.25;;;25.90;68.00;;;;;;5090827;28;20039;-55
2022/07/06 09:22:40;;;;;;;11.93;8.20;;;26.10;67.90;;;;;;5090652;28;20028;-59
2022/07/06 09:25:06;;;;;;;12.48;9.27;;;26.10;66.50;;;;;;5090914;28;20475;-50
2022/07/06 09:27:36;;;;;;;11.07;8.98;;;26.20;67.10;;;;;;5090818;28;20078;-43
2022/07/06 09:30:02;;;;;;;10.43;8.00;;;26.20;65.40;;;;;;5090872;28;20052;-48
2022/07/06 09:32:28;;;;;;;10.05;7.13;;;26.00;68.00;;;;;;5090520;28;20016;-51
2022/07/06 09:34:55;;;;;;;11.02;7.07;;;25.90;69.60;;;;;;5090800;28;20464;-54
2022/07/06 09:37:21;;;;;;;11.55;7.00;;;25.90;65.90;;;;;;5091056;28;20016;-55
2022/07/06 09:39:47;;;;;;;9.73;5.95;;;26.00;67.90;;;;;;5090950;28;20096;-55
2022/07/06 09:42:13;;;;;;;8.38;5.80;;;25.80;67.10;;;;;;5090096;28;20413;-50
2022/07/06 09:44:40;;;;;;;8.10;5.40;;;25.50;68.60;;;;;;5090134;28;20028;-58
2022/07/06 09:47:08;;;;;;;6.50;4.40;;;25.30;67.50;;;;;;5083607;28;20115;-58
2022/07/06 09:49:35;;;;;;;4.43;2.80;;;24.80;70.40;;;;;;5084029;28;20027;-59
2022/07/06 09:52:03;;;;;;;5.35;2.40;;;24.60;71.40;;;;;;5090720;28;20028;-57
2022/07/06 09:54:29;;;;;;;3.47;1.80;;;24.30;72.50;;;;;;5091776;28;20020;-59
2022/07/06 09:56:56;;;;;;;3.15;1.60;;;24.10;72.20;;;;;;5094449;28;20043;-52
2022/07/06 09:59:24;;;;;;;3.47;1.75;;;24.10;73.80;;;;;;5094611;28;20093;-43
2022/07/06 10:01:57;;;;;;;4.13;1.90;;;24.20;71.80;;;;;;5093609;28;20493;-59
2022/07/06 10:04:25;;;;;;;2.85;1.50;;;24.40;76.20;;;;;;5093594;28;20030;-51
2022/07/06 10:06:51;;;;;;;2.55;1.20;;;24.90;75.30;;;;;;5094604;28;20024;-53
2022/07/06 10:09:19;;;;;;;3.03;1.40;;;25.50;73.20;;;;;;5094376;28;20024;-52
2022/07/06 10:11:50;;;;;;;1.98;1.15;;;25.80;72.80;;;;;;5094214;28;20028;-55
2022/07/06 10:14:25;;;;;;;2.35;1.17;;;26.40;69.70;;;;;;5094063;28;20032;-54
2022/07/06 10:16:51;;;;;;;1.67;1.17;;;26.80;69.10;;;;;;5094246;28;20485;-53
2022/07/06 10:19:19;;;;;;;2.28;1.10;;;27.10;64.20;;;;;;5094240;28;20426;-49
2022/07/06 10:21:45;;;;;;;1.75;1.00;;;27.00;64.10;;;;;;5094233;28;20032;-56
2022/07/06 10:24:12;;;;;;;1.92;1.10;;;27.40;67.70;;;;;;5094232;28;20463;-41
2022/07/06 10:26:39;;;;;;;1.70;1.10;;;27.90;64.90;;;;;;5093915;28;20107;-43
2022/07/06 10:29:06;;;;;;;2.78;1.10;;;28.20;68.60;;;;;;5076983;28;20017;-52
2022/07/06 10:31:34;;;;;;;1.65;1.15;;;28.70;62.90;;;;;;5074638;28;20448;-58
2022/07/06 10:34:03;;;;;;;3.08;1.40;;;28.80;60.40;;;;;;5075079;28;20024;-55
2022/07/06 10:36:28;;;;;;;;;;;29.20;62.20;;;;;;5081570;28;20077;-54
2022/07/06 10:38:54;;;;;;;1.85;1.20;;;29.50;59.30;;;;;;5094025;28;19912;-51
2022/07/06 10:41:37;;;;;;;2.10;0.90;;;29.50;59.20;;;;;;5093775;28;20047;-55
2022/07/06 10:44:21;;;;;;;1.40;0.85;;;29.20;58.70;;;;;;5093899;28;20031;-51
2022/07/06 10:46:58;;;;;;;1.80;1.10;;;29.50;60.20;;;;;;5089460;28;20100;-56
2022/07/06 10:49:25;;;;;;;2.63;1.17;;;29.10;55.60;;;;;;5085482;28;20493;-51
2022/07/06 10:51:52;;;;;;;2.33;1.30;;;28.70;57.30;;;;;;5093543;28;20059;-56
2022/07/06 10:54:19;;;;;;;2.47;1.20;;;28.30;60.20;;;;;;5093575;28;20023;-56
2022/07/06 10:56:47;;;;;;;3.15;1.23;;;27.70;60.80;;;;;;5093827;28;20047;-59
2022/07/06 10:59:23;;;;;;;1.98;1.00;;;27.80;63.60;;;;;;5093527;28;20476;-49
2022/07/06 11:02:15;;;;;;;2.03;0.95;;;28.30;61.90;;;;;;5092885;28;20036;-54
2022/07/06 11:04:48;;;;;;;1.67;1.10;;;28.70;61.10;;;;;;5093390;28;20425;-59
2022/07/06 11:07:16;;;;;;;5.55;1.35;;;28.50;58.60;;;;;;5092600;28;20028;-55
2022/07/06 11:09:55;;;;;;;2.85;1.63;;;28.10;61.80;;;;;;5093134;28;20030;-46
2022/07/06 11:12:21;;;;;;;5.07;2.15;;;28.30;61.00;;;;;;5092122;28;20078;-58
2022/07/06 11:14:48;;;;;;;4.80;2.53;;;28.00;61.20;;;;;;5093154;28;20383;-50
2022/07/06 11:17:14;;;;;;;3.35;2.47;;;27.80;60.90;;;;;;5093328;28;20070;-51
2022/07/06 11:20:09;;;;;;;4.43;2.83;;;27.90;63.90;;;;;;5093238;28;20460;-61
2022/07/06 11:22:37;;;;;;;5.15;3.47;;;28.40;61.90;;;;;;5092882;28;20036;-52
2022/07/06 11:25:04;;;;;;;4.18;3.22;;;28.40;62.10;;;;;;5080341;28;20360;-49
2022/07/06 11:27:30;;;;;;;6.07;3.75;;;28.40;60.00;;;;;;5076362;28;20038;-56
2022/07/06 11:29:56;;;;;;;6.28;4.00;;;28.10;58.40;;;;;;5093209;28;20020;-54
2022/07/06 11:32:28;;;;;;;7.28;4.43;;;27.60;59.20;;;;;;5092719;28;20081;-49
2022/07/06 11:34:54;;;;;;;6.72;4.45;;;27.40;60.80;;;;;;5092821;28;20031;-47
2022/07/06 11:37:20;;;;;;;12.77;6.10;;;27.20;60.40;;;;;;5092819;28;20494;-47
2022/07/06 11:39:47;;;;;;;7.40;6.32;;;26.90;63.00;;;;;;5092468;28;20028;-50
2022/07/06 11:42:16;;;;;;;9.73;7.45;;;26.50;62.70;;;;;;5092598;28;20036;-48
2022/07/06 11:44:43;;;;;;;12.25;8.65;;;26.50;63.00;;;;;;5092587;28;20016;-44
2022/07/06 11:47:10;;;;;;;13.25;9.70;;;26.40;65.40;;;;;;5085129;28;20109;-57
2022/07/06 11:49:37;;;;;;;11.82;9.55;;;26.60;64.60;;;;;;5085845;28;20499;-55
2022/07/06 11:52:08;;;;;;;13.40;11.23;;;26.70;64.40;;;;;;5092339;28;20471;-56
2022/07/06 11:54:34;;;;;;;11.60;9.50;;;26.50;64.20;;;;;;5092538;28;20032;-50
2022/07/06 11:57:01;;;;;;;12.10;9.43;;;26.50;63.60;;;;;;5108016;28;20027;-56
2022/07/06 11:59:32;;;;;;;12.35;9.70;;;26.70;65.70;;;;;;5092432;28;20020;-50
2022/07/06 12:01:58;;;;;;;9.35;7.20;;;26.70;63.90;;;;;;5091741;28;20494;-52
2022/07/06 12:04:25;;;;;;;8.30;6.63;;;26.50;65.50;;;;;;5072112;28;20099;-56
2022/07/06 12:06:51;;;;;;;9.32;7.10;;;26.50;65.10;;;;;;5086100;28;20532;-57
2022/07/06 12:09:17;;;;;;;9.30;7.13;;;26.20;63.10;;;;;;5092047;28;20032;-53
2022/07/06 12:11:46;;;;;;;7.38;5.50;;;26.10;66.10;;;;;;5091820;28;20048;-61
2022/07/06 12:14:18;;;;;;;7.03;5.32;;;26.00;65.40;;;;;;5091532;28;20069;-57
2022/07/06 12:16:45;;;;;;;5.45;4.10;;;25.80;67.40;;;;;;5091673;28;20103;-54
2022/07/06 12:19:12;;;;;;;5.05;2.97;;;25.70;66.70;;;;;;5090542;28;20028;-55
2022/07/06 12:21:51;;;;;;;6.13;2.85;;;25.50;67.10;;;;;;5091106;28;20086;-58
2022/07/06 12:24:25;;;;;;;6.72;3.40;;;25.20;69.00;;;;;;5091266;28;20156;-59
2022/07/06 12:26:52;;;;;;;5.78;3.40;;;25.00;70.30;;;;;;5091399;28;20476;-48
2022/07/06 12:29:19;;;;;;;4.57;2.58;;;24.80;70.70;;;;;;5091277;28;20122;-51
2022/07/06 12:31:52;;;;;;;2.53;1.80;;;24.70;72.30;;;;;;5091808;28;20122;-58
2022/07/06 12:34:22;;;;;;;2.72;1.70;;;24.50;74.70;;;;;;5091509;28;20360;-57
2022/07/06 12:36:52;;;;;;;2.80;1.60;;;24.40;72.10;;;;;;5091887;28;20095;-52
2022/07/06 12:39:20;;;;;;;4.15;2.33;;;24.40;74.40;;;;;;5091292;28;20031;-47
2022/07/06 12:41:50;;;;;;;1.52;1.10;;;24.30;77.30;;;;;;5091522;28;20031;-56
2022/07/06 12:44:18;;;;;;;1.88;1.10;;;24.20;72.30;;;;;;5081386;28;20100;-54
2022/07/06 12:46:44;;;;;;;0.98;0.88;;;24.10;73.50;;;;;;5088036;28;20458;-57
2022/07/06 12:49:16;;;;;;;3.72;0.75;;;24.00;78.20;;;;;;5090057;28;20016;-53
2022/07/06 12:52:06;;;;;;;1.55;0.85;;;23.80;77.30;;;;;;5090183;28;20024;-57